Terminal Aerodrome Forecast
Issued by NWS

Home | Current Version | Previous Version | Text Only | Print | Product List | Glossary On
Versions: 1 2 3 4 5 6 7 8 9 10 11 12 13 14 15 16 17 18 19 20 21 22 23 24 25 26 27 28 29
000
FTUS44 KEWX 030500
TAFSSF
TAF
KSSF 030520Z 0306/0406 05006KT 2SM -DZ BR OVC004
     FM030800 12002KT 3/4SM BR OVC002
     FM031600 19007KT 1SM BR OVC003=

USA.gov is the U.S. government's official web portal to all federal, state and local government web resources and services.